Hill Country Village, Texas
Current Conditions -  °F | °C
As of 6:51 PM on Tuesday 21 Oct 2014 (Local Time) from KSAT Reporting Station
Scattered Clouds Scattered Clouds  
Wind Chill: 78°   Ceiling: Unl
Heat Index: 79°   Visibility: 10mi
Dew Point: 50°   Wind: 7mph
Humidity: 37%   Direction: 80°E
Pressure: 29.99"   Gusts: NA
Location:  29.5876°N, 98.474°W
Report Text: KSAT 212351Z 08006KT 10SM FEW070 SCT240 26/10 A2999 RMK AO2 SLP138 T02560100 10289 20256 53001
Loading
Personal Weather Stations






























Interactive Weather Map
Tropical Storm Tracking
New forecast layout! Learn more

10-Day Weather Forecast

Advertisements
Track Severe Weather on mobile